sensor_id;sensor_type;location;lat;lon;timestamp;P1;durP1;ratioP1;P2;durP2;ratioP2
19877;SDS011;10101;52.204;9.910;2023-04-09T00:00:08;37.80;;;19.07;;
19877;SDS011;10101;52.204;9.910;2023-04-09T00:02:37;40.47;;;20.13;;
19877;SDS011;10101;52.204;9.910;2023-04-09T00:05:04;34.03;;;17.07;;
19877;SDS011;10101;52.204;9.910;2023-04-09T00:07:31;45.20;;;21.33;;
19877;SDS011;10101;52.204;9.910;2023-04-09T00:09:58;31.30;;;15.80;;
19877;SDS011;10101;52.204;9.910;2023-04-09T00:12:24;41.20;;;18.47;;
19877;SDS011;10101;52.204;9.910;2023-04-09T00:14:51;36.87;;;17.47;;
19877;SDS011;10101;52.204;9.910;2023-04-09T00:17:18;40.97;;;19.80;;
19877;SDS011;10101;52.204;9.910;2023-04-09T00:19:46;41.23;;;19.10;;
19877;SDS011;10101;52.204;9.910;2023-04-09T00:22:13;59.60;;;19.83;;
19877;SDS011;10101;52.204;9.910;2023-04-09T00:24:40;40.70;;;19.73;;
19877;SDS011;10101;52.204;9.910;2023-04-09T00:27:07;70.90;;;24.63;;
19877;SDS011;10101;52.204;9.910;2023-04-09T00:29:33;54.83;;;23.57;;
19877;SDS011;10101;52.204;9.910;2023-04-09T00:32:00;63.23;;;26.53;;
19877;SDS011;10101;52.204;9.910;2023-04-09T00:34:27;54.40;;;24.90;;
19877;SDS011;10101;52.204;9.910;2023-04-09T00:36:55;69.80;;;26.07;;
19877;SDS011;10101;52.204;9.910;2023-04-09T00:39:22;66.43;;;24.27;;
19877;SDS011;10101;52.204;9.910;2023-04-09T00:41:49;54.57;;;22.83;;
19877;SDS011;10101;52.204;9.910;2023-04-09T00:44:15;70.73;;;26.00;;
19877;SDS011;10101;52.204;9.910;2023-04-09T00:46:42;66.10;;;23.23;;
19877;SDS011;10101;52.204;9.910;2023-04-09T00:49:09;52.43;;;21.10;;
19877;SDS011;10101;52.204;9.910;2023-04-09T00:51:35;54.63;;;21.10;;
19877;SDS011;10101;52.204;9.910;2023-04-09T00:54:04;60.50;;;21.53;;
19877;SDS011;10101;52.204;9.910;2023-04-09T00:56:30;56.67;;;21.90;;
19877;SDS011;10101;52.204;9.910;2023-04-09T00:58:58;47.43;;;19.00;;
19877;SDS011;10101;52.204;9.910;2023-04-09T01:01:24;75.40;;;25.47;;
19877;SDS011;10101;52.204;9.910;2023-04-09T01:03:51;61.67;;;22.47;;
19877;SDS011;10101;52.204;9.910;2023-04-09T01:06:21;45.13;;;19.93;;
19877;SDS011;10101;52.204;9.910;2023-04-09T01:09:05;56.17;;;19.33;;
19877;SDS011;10101;52.204;9.910;2023-04-09T01:11:40;51.10;;;19.03;;
19877;SDS011;10101;52.204;9.910;2023-04-09T01:14:11;49.87;;;18.83;;
19877;SDS011;10101;52.204;9.910;2023-04-09T01:16:47;55.27;;;19.33;;
19877;SDS011;10101;52.204;9.910;2023-04-09T01:19:21;47.63;;;19.47;;
19877;SDS011;10101;52.204;9.910;2023-04-09T01:22:04;36.60;;;16.00;;
19877;SDS011;10101;52.204;9.910;2023-04-09T01:24:39;34.10;;;16.03;;
19877;SDS011;10101;52.204;9.910;2023-04-09T01:27:11;38.43;;;18.60;;
19877;SDS011;10101;52.204;9.910;2023-04-09T01:29:44;40.13;;;19.30;;
19877;SDS011;10101;52.204;9.910;2023-04-09T01:32:12;50.80;;;20.47;;
19877;SDS011;10101;52.204;9.910;2023-04-09T01:34:42;33.73;;;16.23;;
19877;SDS011;10101;52.204;9.910;2023-04-09T01:37:11;31.27;;;15.17;;
19877;SDS011;10101;52.204;9.910;2023-04-09T01:39:40;35.77;;;16.73;;
19877;SDS011;10101;52.204;9.910;2023-04-09T01:42:07;29.93;;;15.97;;
19877;SDS011;10101;52.204;9.910;2023-04-09T01:44:37;29.40;;;16.20;;
19877;SDS011;10101;52.204;9.910;2023-04-09T01:47:06;28.30;;;14.30;;
19877;SDS011;10101;52.204;9.910;2023-04-09T01:49:33;26.47;;;15.50;;
19877;SDS011;10101;52.204;9.910;2023-04-09T01:52:01;41.23;;;17.93;;
19877;SDS011;10101;52.204;9.910;2023-04-09T01:54:28;32.53;;;16.07;;
19877;SDS011;10101;52.204;9.910;2023-04-09T01:56:55;42.87;;;16.13;;
19877;SDS011;10101;52.204;9.910;2023-04-09T01:59:23;42.93;;;16.50;;
19877;SDS011;10101;52.204;9.910;2023-04-09T02:01:52;33.27;;;15.70;;
19877;SDS011;10101;52.204;9.910;2023-04-09T02:04:22;28.57;;;15.23;;
19877;SDS011;10101;52.204;9.910;2023-04-09T02:06:55;31.13;;;15.03;;
19877;SDS011;10101;52.204;9.910;2023-04-09T02:09:24;34.77;;;15.37;;
19877;SDS011;10101;52.204;9.910;2023-04-09T02:11:54;28.80;;;12.73;;
19877;SDS011;10101;52.204;9.910;2023-04-09T02:14:24;52.90;;;17.13;;
19877;SDS011;10101;52.204;9.910;2023-04-09T02:16:52;43.00;;;15.30;;
19877;SDS011;10101;52.204;9.910;2023-04-09T02:19:19;42.17;;;15.60;;
19877;SDS011;10101;52.204;9.910;2023-04-09T02:21:47;33.53;;;15.53;;
19877;SDS011;10101;52.204;9.910;2023-04-09T02:24:14;31.33;;;14.00;;
19877;SDS011;10101;52.204;9.910;2023-04-09T02:26:41;26.17;;;13.43;;
19877;SDS011;10101;52.204;9.910;2023-04-09T02:29:07;41.10;;;14.13;;
19877;SDS011;10101;52.204;9.910;2023-04-09T02:31:34;33.43;;;14.57;;
19877;SDS011;10101;52.204;9.910;2023-04-09T02:34:01;37.03;;;15.00;;
19877;SDS011;10101;52.204;9.910;2023-04-09T02:36:27;34.30;;;15.03;;
19877;SDS011;10101;52.204;9.910;2023-04-09T02:38:56;37.40;;;14.67;;
19877;SDS011;10101;52.204;9.910;2023-04-09T02:41:23;30.00;;;14.27;;
19877;SDS011;10101;52.204;9.910;2023-04-09T02:43:50;43.83;;;14.87;;
19877;SDS011;10101;52.204;9.910;2023-04-09T02:46:16;43.23;;;15.17;;
19877;SDS011;10101;52.204;9.910;2023-04-09T02:48:43;34.80;;;14.33;;
19877;SDS011;10101;52.204;9.910;2023-04-09T02:51:10;30.50;;;15.37;;
19877;SDS011;10101;52.204;9.910;2023-04-09T02:53:36;34.27;;;14.30;;
19877;SDS011;10101;52.204;9.910;2023-04-09T02:56:06;36.97;;;14.97;;
19877;SDS011;10101;52.204;9.910;2023-04-09T02:58:33;42.73;;;17.13;;
19877;SDS011;10101;52.204;9.910;2023-04-09T03:00:59;23.40;;;14.10;;
19877;SDS011;10101;52.204;9.910;2023-04-09T03:03:26;34.47;;;15.47;;
19877;SDS011;10101;52.204;9.910;2023-04-09T03:05:54;38.20;;;15.67;;
19877;SDS011;10101;52.204;9.910;2023-04-09T03:08:21;32.60;;;14.47;;
19877;SDS011;10101;52.204;9.910;2023-04-09T03:10:48;29.17;;;14.53;;
19877;SDS011;10101;52.204;9.910;2023-04-09T03:13:16;32.20;;;14.40;;
19877;SDS011;10101;52.204;9.910;2023-04-09T03:15:42;35.47;;;15.60;;
19877;SDS011;10101;52.204;9.910;2023-04-09T03:18:09;29.27;;;15.00;;
19877;SDS011;10101;52.204;9.910;2023-04-09T03:20:36;26.13;;;14.63;;
19877;SDS011;10101;52.204;9.910;2023-04-09T03:23:03;24.30;;;13.47;;
19877;SDS011;10101;52.204;9.910;2023-04-09T03:25:30;27.67;;;15.53;;
19877;SDS011;10101;52.204;9.910;2023-04-09T03:27:56;29.37;;;15.20;;
19877;SDS011;10101;52.204;9.910;2023-04-09T03:30:24;25.27;;;14.37;;
19877;SDS011;10101;52.204;9.910;2023-04-09T03:32:51;23.10;;;13.70;;
19877;SDS011;10101;52.204;9.910;2023-04-09T03:35:18;26.03;;;14.20;;
19877;SDS011;10101;52.204;9.910;2023-04-09T03:37:45;21.90;;;13.00;;
19877;SDS011;10101;52.204;9.910;2023-04-09T03:40:12;24.67;;;13.63;;
19877;SDS011;10101;52.204;9.910;2023-04-09T03:42:40;24.43;;;13.03;;
19877;SDS011;10101;52.204;9.910;2023-04-09T03:45:08;20.07;;;12.87;;
19877;SDS011;10101;52.204;9.910;2023-04-09T03:47:36;30.47;;;14.03;;
19877;SDS011;10101;52.204;9.910;2023-04-09T03:50:03;28.27;;;13.80;;
19877;SDS011;10101;52.204;9.910;2023-04-09T03:52:30;27.67;;;13.43;;
19877;SDS011;10101;52.204;9.910;2023-04-09T03:54:57;19.13;;;12.97;;
19877;SDS011;10101;52.204;9.910;2023-04-09T03:57:23;39.50;;;14.60;;
19877;SDS011;10101;52.204;9.910;2023-04-09T03:59:50;24.17;;;12.03;;
19877;SDS011;10101;52.204;9.910;2023-04-09T04:02:17;45.50;;;14.83;;
19877;SDS011;10101;52.204;9.910;2023-04-09T04:04:45;43.07;;;14.57;;
19877;SDS011;10101;52.204;9.910;2023-04-09T04:07:12;25.63;;;13.10;;
19877;SDS011;10101;52.204;9.910;2023-04-09T04:09:39;42.10;;;14.23;;
19877;SDS011;10101;52.204;9.910;2023-04-09T04:12:05;33.23;;;12.57;;
19877;SDS011;10101;52.204;9.910;2023-04-09T04:14:32;46.63;;;13.53;;
19877;SDS011;10101;52.204;9.910;2023-04-09T04:16:59;22.20;;;11.77;;
19877;SDS011;10101;52.204;9.910;2023-04-09T04:19:25;27.90;;;14.00;;
19877;SDS011;10101;52.204;9.910;2023-04-09T04:21:53;33.73;;;13.87;;
19877;SDS011;10101;52.204;9.910;2023-04-09T04:24:20;25.20;;;12.37;;
19877;SDS011;10101;52.204;9.910;2023-04-09T04:26:47;33.23;;;13.73;;
19877;SDS011;10101;52.204;9.910;2023-04-09T04:29:14;31.63;;;14.17;;
19877;SDS011;10101;52.204;9.910;2023-04-09T04:31:40;21.43;;;12.37;;
19877;SDS011;10101;52.204;9.910;2023-04-09T04:34:07;30.70;;;13.37;;
19877;SDS011;10101;52.204;9.910;2023-04-09T04:36:35;27.40;;;14.47;;
19877;SDS011;10101;52.204;9.910;2023-04-09T04:39:03;24.43;;;13.23;;
19877;SDS011;10101;52.204;9.910;2023-04-09T04:41:30;21.73;;;12.90;;
19877;SDS011;10101;52.204;9.910;2023-04-09T04:43:56;24.90;;;13.10;;
19877;SDS011;10101;52.204;9.910;2023-04-09T04:46:23;36.67;;;14.30;;
19877;SDS011;10101;52.204;9.910;2023-04-09T04:48:50;42.07;;;14.80;;
19877;SDS011;10101;52.204;9.910;2023-04-09T04:51:17;22.77;;;12.47;;
19877;SDS011;10101;52.204;9.910;2023-04-09T04:53:43;22.73;;;12.97;;
19877;SDS011;10101;52.204;9.910;2023-04-09T04:56:12;23.17;;;13.03;;
19877;SDS011;10101;52.204;9.910;2023-04-09T04:58:40;29.07;;;12.23;;
19877;SDS011;10101;52.204;9.910;2023-04-09T05:01:06;28.77;;;12.60;;
19877;SDS011;10101;52.204;9.910;2023-04-09T05:03:33;31.90;;;12.43;;
19877;SDS011;10101;52.204;9.910;2023-04-09T05:06:00;22.43;;;11.10;;
19877;SDS011;10101;52.204;9.910;2023-04-09T05:08:27;35.90;;;12.83;;
19877;SDS011;10101;52.204;9.910;2023-04-09T05:10:54;28.37;;;12.13;;
19877;SDS011;10101;52.204;9.910;2023-04-09T05:13:22;52.07;;;13.50;;
19877;SDS011;10101;52.204;9.910;2023-04-09T05:15:49;32.20;;;13.00;;
19877;SDS011;10101;52.204;9.910;2023-04-09T05:18:15;22.60;;;11.90;;
19877;SDS011;10101;52.204;9.910;2023-04-09T05:20:42;23.80;;;11.43;;
19877;SDS011;10101;52.204;9.910;2023-04-09T05:23:09;35.63;;;13.17;;
19877;SDS011;10101;52.204;9.910;2023-04-09T05:25:36;29.23;;;12.17;;
19877;SDS011;10101;52.204;9.910;2023-04-09T05:28:03;38.83;;;12.70;;
19877;SDS011;10101;52.204;9.910;2023-04-09T05:30:31;32.60;;;11.87;;
19877;SDS011;10101;52.204;9.910;2023-04-09T05:32:58;23.13;;;11.70;;
19877;SDS011;10101;52.204;9.910;2023-04-09T05:35:25;23.53;;;12.07;;
19877;SDS011;10101;52.204;9.910;2023-04-09T05:37:51;21.40;;;11.83;;
19877;SDS011;10101;52.204;9.910;2023-04-09T05:40:18;22.07;;;12.17;;
19877;SDS011;10101;52.204;9.910;2023-04-09T05:42:45;29.17;;;12.67;;
19877;SDS011;10101;52.204;9.910;2023-04-09T05:45:12;21.97;;;11.10;;
19877;SDS011;10101;52.204;9.910;2023-04-09T05:47:40;23.97;;;10.87;;
19877;SDS011;10101;52.204;9.910;2023-04-09T05:50:07;22.67;;;10.97;;
19877;SDS011;10101;52.204;9.910;2023-04-09T05:52:34;17.10;;;10.87;;
19877;SDS011;10101;52.204;9.910;2023-04-09T05:55:01;24.33;;;12.10;;
19877;SDS011;10101;52.204;9.910;2023-04-09T05:57:27;28.50;;;12.30;;
19877;SDS011;10101;52.204;9.910;2023-04-09T05:59:55;24.23;;;12.50;;
19877;SDS011;10101;52.204;9.910;2023-04-09T06:02:22;28.37;;;12.87;;
19877;SDS011;10101;52.204;9.910;2023-04-09T06:04:50;19.87;;;12.20;;
19877;SDS011;10101;52.204;9.910;2023-04-09T06:07:17;26.20;;;12.63;;
19877;SDS011;10101;52.204;9.910;2023-04-09T06:09:43;21.23;;;12.13;;
19877;SDS011;10101;52.204;9.910;2023-04-09T06:12:11;23.27;;;12.20;;
19877;SDS011;10101;52.204;9.910;2023-04-09T06:14:37;21.73;;;12.40;;
19877;SDS011;10101;52.204;9.910;2023-04-09T06:17:04;24.23;;;12.83;;
19877;SDS011;10101;52.204;9.910;2023-04-09T06:19:31;26.63;;;13.57;;
19877;SDS011;10101;52.204;9.910;2023-04-09T06:21:59;20.23;;;12.27;;
19877;SDS011;10101;52.204;9.910;2023-04-09T06:24:25;27.03;;;13.90;;
19877;SDS011;10101;52.204;9.910;2023-04-09T06:26:52;25.13;;;14.10;;
19877;SDS011;10101;52.204;9.910;2023-04-09T06:29:19;22.53;;;13.67;;
19877;SDS011;10101;52.204;9.910;2023-04-09T06:31:46;24.27;;;12.93;;
19877;SDS011;10101;52.204;9.910;2023-04-09T06:34:12;31.10;;;13.80;;
19877;SDS011;10101;52.204;9.910;2023-04-09T06:36:39;23.73;;;13.77;;
19877;SDS011;10101;52.204;9.910;2023-04-09T06:39:07;20.23;;;12.60;;
19877;SDS011;10101;52.204;9.910;2023-04-09T06:41:34;23.70;;;13.53;;
19877;SDS011;10101;52.204;9.910;2023-04-09T06:44:01;24.63;;;13.63;;
19877;SDS011;10101;52.204;9.910;2023-04-09T06:46:28;24.67;;;13.20;;
19877;SDS011;10101;52.204;9.910;2023-04-09T06:48:54;20.83;;;11.97;;
19877;SDS011;10101;52.204;9.910;2023-04-09T06:51:21;21.57;;;13.17;;
19877;SDS011;10101;52.204;9.910;2023-04-09T06:53:48;22.87;;;12.83;;
19877;SDS011;10101;52.204;9.910;2023-04-09T06:56:16;26.90;;;14.57;;
19877;SDS011;10101;52.204;9.910;2023-04-09T06:58:43;26.80;;;14.83;;
19877;SDS011;10101;52.204;9.910;2023-04-09T07:01:10;23.57;;;13.10;;
19877;SDS011;10101;52.204;9.910;2023-04-09T07:03:37;30.83;;;14.20;;
19877;SDS011;10101;52.204;9.910;2023-04-09T07:06:04;21.63;;;13.23;;
19877;SDS011;10101;52.204;9.910;2023-04-09T07:08:31;24.13;;;13.70;;
19877;SDS011;10101;52.204;9.910;2023-04-09T07:10:58;25.63;;;14.00;;
19877;SDS011;10101;52.204;9.910;2023-04-09T07:13:26;26.60;;;14.20;;
19877;SDS011;10101;52.204;9.910;2023-04-09T07:15:53;26.97;;;15.03;;
19877;SDS011;10101;52.204;9.910;2023-04-09T07:18:20;24.97;;;14.10;;
19877;SDS011;10101;52.204;9.910;2023-04-09T07:20:46;24.90;;;14.90;;
19877;SDS011;10101;52.204;9.910;2023-04-09T07:23:13;29.17;;;15.53;;
19877;SDS011;10101;52.204;9.910;2023-04-09T07:25:40;20.90;;;13.27;;
19877;SDS011;10101;52.204;9.910;2023-04-09T07:28:07;25.13;;;14.80;;
19877;SDS011;10101;52.204;9.910;2023-04-09T07:30:37;25.37;;;15.50;;
19877;SDS011;10101;52.204;9.910;2023-04-09T07:33:05;26.70;;;15.33;;
19877;SDS011;10101;52.204;9.910;2023-04-09T07:35:31;24.80;;;14.40;;
19877;SDS011;10101;52.204;9.910;2023-04-09T07:37:58;28.90;;;16.03;;
19877;SDS011;10101;52.204;9.910;2023-04-09T07:40:25;24.23;;;14.57;;
19877;SDS011;10101;52.204;9.910;2023-04-09T07:42:52;31.33;;;16.33;;
19877;SDS011;10101;52.204;9.910;2023-04-09T07:45:19;27.83;;;15.33;;
19877;SDS011;10101;52.204;9.910;2023-04-09T07:47:48;22.73;;;14.80;;
19877;SDS011;10101;52.204;9.910;2023-04-09T07:50:14;29.37;;;16.67;;
19877;SDS011;10101;52.204;9.910;2023-04-09T07:52:41;31.80;;;15.67;;
19877;SDS011;10101;52.204;9.910;2023-04-09T07:55:08;27.10;;;15.20;;
19877;SDS011;10101;52.204;9.910;2023-04-09T07:57:35;32.00;;;16.60;;
19877;SDS011;10101;52.204;9.910;2023-04-09T08:00:02;27.20;;;16.17;;
19877;SDS011;10101;52.204;9.910;2023-04-09T08:02:29;30.37;;;15.67;;
19877;SDS011;10101;52.204;9.910;2023-04-09T08:04:57;29.93;;;15.73;;
19877;SDS011;10101;52.204;9.910;2023-04-09T08:07:23;30.70;;;15.97;;
19877;SDS011;10101;52.204;9.910;2023-04-09T08:09:50;26.70;;;15.20;;
19877;SDS011;10101;52.204;9.910;2023-04-09T08:12:17;31.90;;;15.60;;
19877;SDS011;10101;52.204;9.910;2023-04-09T08:14:44;33.20;;;15.37;;
19877;SDS011;10101;52.204;9.910;2023-04-09T08:17:11;33.03;;;16.93;;
19877;SDS011;10101;52.204;9.910;2023-04-09T08:19:37;31.97;;;16.83;;
19877;SDS011;10101;52.204;9.910;2023-04-09T08:22:06;31.13;;;16.90;;
19877;SDS011;10101;52.204;9.910;2023-04-09T08:24:32;33.03;;;16.90;;
19877;SDS011;10101;52.204;9.910;2023-04-09T08:26:59;32.40;;;16.27;;
19877;SDS011;10101;52.204;9.910;2023-04-09T08:29:26;28.60;;;16.50;;
19877;SDS011;10101;52.204;9.910;2023-04-09T08:31:53;32.10;;;16.90;;
19877;SDS011;10101;52.204;9.910;2023-04-09T08:34:20;32.13;;;16.67;;
19877;SDS011;10101;52.204;9.910;2023-04-09T08:36:47;29.93;;;15.97;;
19877;SDS011;10101;52.204;9.910;2023-04-09T08:39:15;27.70;;;14.90;;
19877;SDS011;10101;52.204;9.910;2023-04-09T08:41:44;30.03;;;16.17;;
19877;SDS011;10101;52.204;9.910;2023-04-09T08:44:11;30.47;;;15.53;;
19877;SDS011;10101;52.204;9.910;2023-04-09T08:46:38;28.53;;;15.27;;
19877;SDS011;10101;52.204;9.910;2023-04-09T08:49:06;30.17;;;15.77;;
19877;SDS011;10101;52.204;9.910;2023-04-09T08:51:34;30.77;;;15.60;;
19877;SDS011;10101;52.204;9.910;2023-04-09T08:54:01;27.17;;;15.37;;
19877;SDS011;10101;52.204;9.910;2023-04-09T08:56:29;28.33;;;15.73;;
19877;SDS011;10101;52.204;9.910;2023-04-09T08:58:56;30.50;;;16.80;;
19877;SDS011;10101;52.204;9.910;2023-04-09T09:01:23;27.83;;;14.83;;
19877;SDS011;10101;52.204;9.910;2023-04-09T09:03:52;30.17;;;15.53;;
19877;SDS011;10101;52.204;9.910;2023-04-09T09:06:21;29.30;;;15.63;;
19877;SDS011;10101;52.204;9.910;2023-04-09T09:08:58;27.80;;;15.40;;
19877;SDS011;10101;52.204;9.910;2023-04-09T09:11:26;36.20;;;19.07;;
19877;SDS011;10101;52.204;9.910;2023-04-09T09:13:59;31.00;;;16.47;;
19877;SDS011;10101;52.204;9.910;2023-04-09T09:16:26;31.07;;;16.90;;
19877;SDS011;10101;52.204;9.910;2023-04-09T09:18:53;30.73;;;16.73;;
19877;SDS011;10101;52.204;9.910;2023-04-09T09:21:21;30.57;;;17.73;;
19877;SDS011;10101;52.204;9.910;2023-04-09T09:23:48;32.73;;;18.67;;
19877;SDS011;10101;52.204;9.910;2023-04-09T09:26:16;34.10;;;18.07;;
19877;SDS011;10101;52.204;9.910;2023-04-09T09:28:45;35.43;;;19.57;;
19877;SDS011;10101;52.204;9.910;2023-04-09T09:31:14;37.27;;;19.93;;
19877;SDS011;10101;52.204;9.910;2023-04-09T09:33:41;39.23;;;20.73;;
19877;SDS011;10101;52.204;9.910;2023-04-09T09:36:08;44.53;;;22.37;;
19877;SDS011;10101;52.204;9.910;2023-04-09T09:38:49;39.80;;;22.00;;
19877;SDS011;10101;52.204;9.910;2023-04-09T09:41:18;43.97;;;22.23;;
19877;SDS011;10101;52.204;9.910;2023-04-09T09:43:45;45.00;;;22.77;;
19877;SDS011;10101;52.204;9.910;2023-04-09T09:46:14;43.43;;;22.47;;
19877;SDS011;10101;52.204;9.910;2023-04-09T09:48:41;40.67;;;21.93;;
19877;SDS011;10101;52.204;9.910;2023-04-09T09:51:11;41.07;;;21.53;;
19877;SDS011;10101;52.204;9.910;2023-04-09T09:53:40;46.40;;;23.90;;
19877;SDS011;10101;52.204;9.910;2023-04-09T09:56:11;44.50;;;22.97;;
19877;SDS011;10101;52.204;9.910;2023-04-09T09:58:43;47.47;;;23.80;;
19877;SDS011;10101;52.204;9.910;2023-04-09T10:01:16;53.37;;;25.33;;
19877;SDS011;10101;52.204;9.910;2023-04-09T10:03:45;45.67;;;23.50;;
19877;SDS011;10101;52.204;9.910;2023-04-09T10:06:15;51.17;;;25.10;;
19877;SDS011;10101;52.204;9.910;2023-04-09T10:08:42;48.67;;;25.93;;
19877;SDS011;10101;52.204;9.910;2023-04-09T10:11:11;53.63;;;26.77;;
19877;SDS011;10101;52.204;9.910;2023-04-09T10:13:39;52.40;;;26.33;;
19877;SDS011;10101;52.204;9.910;2023-04-09T10:16:11;46.20;;;22.77;;
19877;SDS011;10101;52.204;9.910;2023-04-09T10:18:39;48.67;;;24.70;;
19877;SDS011;10101;52.204;9.910;2023-04-09T10:21:08;49.43;;;23.70;;
19877;SDS011;10101;52.204;9.910;2023-04-09T10:23:43;44.20;;;24.30;;
19877;SDS011;10101;52.204;9.910;2023-04-09T10:26:13;48.97;;;24.50;;
19877;SDS011;10101;52.204;9.910;2023-04-09T10:28:40;41.47;;;21.73;;
19877;SDS011;10101;52.204;9.910;2023-04-09T10:31:08;41.10;;;21.47;;
19877;SDS011;10101;52.204;9.910;2023-04-09T10:33:35;46.17;;;24.43;;
19877;SDS011;10101;52.204;9.910;2023-04-09T10:36:06;53.17;;;27.07;;
19877;SDS011;10101;52.204;9.910;2023-04-09T10:38:36;51.57;;;26.80;;
19877;SDS011;10101;52.204;9.910;2023-04-09T10:41:09;52.13;;;25.50;;
19877;SDS011;10101;52.204;9.910;2023-04-09T10:43:40;54.47;;;26.60;;
19877;SDS011;10101;52.204;9.910;2023-04-09T10:46:08;54.10;;;26.77;;
19877;SDS011;10101;52.204;9.910;2023-04-09T10:51:35;46.40;;;25.30;;
19877;SDS011;10101;52.204;9.910;2023-04-09T10:54:03;46.57;;;24.77;;
19877;SDS011;10101;52.204;9.910;2023-04-09T10:56:30;51.27;;;27.10;;
19877;SDS011;10101;52.204;9.910;2023-04-09T10:58:56;51.97;;;29.53;;
19877;SDS011;10101;52.204;9.910;2023-04-09T11:01:23;47.97;;;27.40;;
19877;SDS011;10101;52.204;9.910;2023-04-09T11:04:05;51.57;;;29.37;;
19877;SDS011;10101;52.204;9.910;2023-04-09T11:06:35;47.53;;;27.17;;
19877;SDS011;10101;52.204;9.910;2023-04-09T11:09:05;53.73;;;29.00;;
19877;SDS011;10101;52.204;9.910;2023-04-09T11:11:32;46.13;;;26.43;;
19877;SDS011;10101;52.204;9.910;2023-04-09T11:13:59;47.60;;;27.87;;
19877;SDS011;10101;52.204;9.910;2023-04-09T11:16:27;48.87;;;27.93;;
19877;SDS011;10101;52.204;9.910;2023-04-09T11:18:54;43.70;;;25.73;;
19877;SDS011;10101;52.204;9.910;2023-04-09T11:21:25;45.27;;;26.40;;
19877;SDS011;10101;52.204;9.910;2023-04-09T11:23:54;45.30;;;25.53;;
19877;SDS011;10101;52.204;9.910;2023-04-09T11:26:24;42.23;;;24.93;;
19877;SDS011;10101;52.204;9.910;2023-04-09T11:29:03;42.60;;;24.50;;
19877;SDS011;10101;52.204;9.910;2023-04-09T11:31:30;41.67;;;24.83;;
19877;SDS011;10101;52.204;9.910;2023-04-09T11:33:56;43.40;;;24.67;;
19877;SDS011;10101;52.204;9.910;2023-04-09T11:36:23;41.17;;;24.20;;
19877;SDS011;10101;52.204;9.910;2023-04-09T11:38:51;38.47;;;23.47;;
19877;SDS011;10101;52.204;9.910;2023-04-09T11:41:31;42.50;;;23.60;;
19877;SDS011;10101;52.204;9.910;2023-04-09T11:43:58;38.27;;;22.80;;
19877;SDS011;10101;52.204;9.910;2023-04-09T11:46:27;44.00;;;23.43;;
19877;SDS011;10101;52.204;9.910;2023-04-09T11:48:55;38.17;;;22.30;;
19877;SDS011;10101;52.204;9.910;2023-04-09T11:51:22;31.60;;;19.33;;
19877;SDS011;10101;52.204;9.910;2023-04-09T11:53:51;34.20;;;19.87;;
19877;SDS011;10101;52.204;9.910;2023-04-09T11:56:18;38.07;;;20.60;;
19877;SDS011;10101;52.204;9.910;2023-04-09T11:58:46;38.17;;;21.87;;
19877;SDS011;10101;52.204;9.910;2023-04-09T12:01:14;37.43;;;20.97;;
19877;SDS011;10101;52.204;9.910;2023-04-09T12:03:41;35.90;;;21.40;;
19877;SDS011;10101;52.204;9.910;2023-04-09T12:06:08;32.87;;;20.20;;
19877;SDS011;10101;52.204;9.910;2023-04-09T12:08:35;38.67;;;21.87;;
19877;SDS011;10101;52.204;9.910;2023-04-09T12:11:08;33.37;;;19.73;;
19877;SDS011;10101;52.204;9.910;2023-04-09T12:13:36;31.03;;;18.80;;
19877;SDS011;10101;52.204;9.910;2023-04-09T12:16:08;31.50;;;18.47;;
19877;SDS011;10101;52.204;9.910;2023-04-09T12:18:35;33.97;;;18.93;;
19877;SDS011;10101;52.204;9.910;2023-04-09T12:21:02;32.23;;;18.93;;
19877;SDS011;10101;52.204;9.910;2023-04-09T12:23:29;31.60;;;18.30;;
19877;SDS011;10101;52.204;9.910;2023-04-09T12:25:56;31.03;;;18.20;;
19877;SDS011;10101;52.204;9.910;2023-04-09T12:28:25;30.27;;;17.20;;
19877;SDS011;10101;52.204;9.910;2023-04-09T12:30:52;31.20;;;17.43;;
19877;SDS011;10101;52.204;9.910;2023-04-09T12:33:21;29.33;;;17.40;;
19877;SDS011;10101;52.204;9.910;2023-04-09T12:35:48;29.00;;;16.93;;
19877;SDS011;10101;52.204;9.910;2023-04-09T12:38:15;30.67;;;17.27;;
19877;SDS011;10101;52.204;9.910;2023-04-09T12:40:41;27.43;;;15.83;;
19877;SDS011;10101;52.204;9.910;2023-04-09T12:43:08;28.37;;;17.27;;
19877;SDS011;10101;52.204;9.910;2023-04-09T12:45:35;29.27;;;16.30;;
19877;SDS011;10101;52.204;9.910;2023-04-09T12:48:02;29.50;;;16.93;;
19877;SDS011;10101;52.204;9.910;2023-04-09T12:50:30;26.57;;;16.50;;
19877;SDS011;10101;52.204;9.910;2023-04-09T12:52:57;28.23;;;15.83;;
19877;SDS011;10101;52.204;9.910;2023-04-09T12:55:24;25.90;;;16.13;;
19877;SDS011;10101;52.204;9.910;2023-04-09T12:57:51;26.93;;;15.90;;
19877;SDS011;10101;52.204;9.910;2023-04-09T13:00:18;25.60;;;15.63;;
19877;SDS011;10101;52.204;9.910;2023-04-09T13:02:45;27.17;;;15.53;;
19877;SDS011;10101;52.204;9.910;2023-04-09T13:05:12;23.63;;;14.50;;
19877;SDS011;10101;52.204;9.910;2023-04-09T13:07:40;23.87;;;14.87;;
19877;SDS011;10101;52.204;9.910;2023-04-09T13:10:07;23.90;;;14.57;;
19877;SDS011;10101;52.204;9.910;2023-04-09T13:12:34;22.30;;;13.90;;
19877;SDS011;10101;52.204;9.910;2023-04-09T13:15:01;24.10;;;13.33;;
19877;SDS011;10101;52.204;9.910;2023-04-09T13:17:28;22.27;;;13.53;;
19877;SDS011;10101;52.204;9.910;2023-04-09T13:19:55;23.00;;;13.80;;
19877;SDS011;10101;52.204;9.910;2023-04-09T13:22:21;20.63;;;13.40;;
19877;SDS011;10101;52.204;9.910;2023-04-09T13:24:49;22.67;;;13.07;;
19877;SDS011;10101;52.204;9.910;2023-04-09T13:27:16;22.20;;;14.07;;
19877;SDS011;10101;52.204;9.910;2023-04-09T13:29:43;22.73;;;13.70;;
19877;SDS011;10101;52.204;9.910;2023-04-09T13:32:10;22.30;;;14.20;;
19877;SDS011;10101;52.204;9.910;2023-04-09T13:34:37;21.37;;;12.83;;
19877;SDS011;10101;52.204;9.910;2023-04-09T13:37:04;21.30;;;13.20;;
19877;SDS011;10101;52.204;9.910;2023-04-09T13:39:31;21.53;;;13.10;;
19877;SDS011;10101;52.204;9.910;2023-04-09T13:41:59;21.57;;;12.97;;
19877;SDS011;10101;52.204;9.910;2023-04-09T13:44:27;19.47;;;12.47;;
19877;SDS011;10101;52.204;9.910;2023-04-09T13:46:54;20.80;;;12.93;;
19877;SDS011;10101;52.204;9.910;2023-04-09T13:49:20;19.63;;;11.80;;
19877;SDS011;10101;52.204;9.910;2023-04-09T13:51:47;20.50;;;12.53;;
19877;SDS011;10101;52.204;9.910;2023-04-09T13:54:15;20.47;;;12.13;;
19877;SDS011;10101;52.204;9.910;2023-04-09T13:56:43;21.43;;;12.60;;
19877;SDS011;10101;52.204;9.910;2023-04-09T13:59:12;20.13;;;12.40;;
19877;SDS011;10101;52.204;9.910;2023-04-09T14:01:38;19.33;;;12.47;;
19877;SDS011;10101;52.204;9.910;2023-04-09T14:04:05;18.37;;;11.40;;
19877;SDS011;10101;52.204;9.910;2023-04-09T14:06:32;21.93;;;12.90;;
19877;SDS011;10101;52.204;9.910;2023-04-09T14:08:59;19.10;;;11.70;;
19877;SDS011;10101;52.204;9.910;2023-04-09T14:11:26;19.63;;;11.50;;
19877;SDS011;10101;52.204;9.910;2023-04-09T14:13:53;21.63;;;12.40;;
19877;SDS011;10101;52.204;9.910;2023-04-09T14:16:21;19.30;;;11.53;;
19877;SDS011;10101;52.204;9.910;2023-04-09T14:18:49;20.07;;;12.13;;
19877;SDS011;10101;52.204;9.910;2023-04-09T14:21:16;20.30;;;12.30;;
19877;SDS011;10101;52.204;9.910;2023-04-09T14:23:43;20.57;;;11.80;;
19877;SDS011;10101;52.204;9.910;2023-04-09T14:26:10;22.03;;;12.80;;